EGLLMKJP

Guest
Details From EGLL - London Heathrow
To MKJP - Norman Manley Intl
Flight Number -
Tags Generated
Created
Modified
Stats Distance 4,060 nm / 7,519 km
Max Altitude 0 ft / 0 m
Waypoints 5
Social Downloads 11
Likes 0
Share VATSIM

Download

Looking for another format? Having issues loading an existing format? Contact us
Advertisement - Login to hide

Notes

Generated

Route

EGLL DOKEK JOTAS MLY71 MKJP

ID Type Via Altitude Latitude Longitude Leg Dist Tot Dist Heading (true) Name
O EGLL APT - 0 ft / 0 m 51.46477˚ -0.48695˚ - 0 nm - -
DOKEK FIX - 0 ft / 0 m 51.42167˚ -6.05806˚ 208 nm 208 nm 271° / 267° -
JOTAS FIX - 0 ft / 0 m 20.85056˚ -74.11306˚ 3619 nm 3827 nm 267° / 222° -
MLY71 FIX - 0 ft / 0 m 17.94091˚ -76.80520˚ 231 nm 4059 nm 222° / 221° -
O MKJP APT - 0 ft / 0 m 17.94026˚ -76.79945˚ 0 nm 4059 nm 97° / 97° -

Altitude Profile

Advertisement - Login to hide

Weather


0- 5 10 15 20 25 30 35+ Temperature / ° C

Clouds and Precipitation
Forecast for 2017-12-18 12:00 UTC. Updated an hour ago

Ground ~20,000 ft ~40,000 ft Winds

EGLL

Details ICAO EGLL (LHR)
Name London Heathrow
Region United Kingdom
Timezone Europe/London (UTC+0.0)
Stats Elevation 83 ft / 25 m (AMSL)
Location 51.471218° -0.460978°
Runways 2
Magnetic Variation 0.558° W

METAR

EGLL 181220Z AUTO VRB02KT 9999 NCD 07/03 Q1030 NOSIG

Decode

TAF

TAF EGLL 181057Z 1812/1918 34005KT 9999 FEW040 BECMG 1816/1819 5000 BR BECMG 1819/1822 2000 MIFG PROB30 1822/1824 0200 FG VV/// PROB40 1900/1903 0200 FG VV/// BECMG 1903/1906 0200 FG FZFG VV/// BECMG 1910/1913 3000 BR BKN003 PROB30 1913/1917 0500 FG VV///

Decode

Departure Runways

ID Width Length Bearing (true) Bearing (mag) Surface Threshold Offset Overrun Length
09L 164 ft / 50 m 12,811 ft / 3,905 m 89.64° 90.20° Asphalt 1,004 ft / 306 m 0 ft / 0 m
09R 164 ft / 50 m 12,019 ft / 3,663 m 89.67° 90.23° Asphalt 1,007 ft / 307 m 0 ft / 0 m
27L 164 ft / 50 m 12,019 ft / 3,663 m 269.71° 270.27° Asphalt 0 ft / 0 m 69 ft / 21 m
27R 164 ft / 50 m 12,811 ft / 3,905 m 269.69° 270.25° Asphalt 0 ft / 0 m 69 ft / 21 m

MKJP

Details ICAO MKJP (KIN)
Name Norman Manley Intl
Region Jamaica
Timezone Unknown (UTC+0.0)
Stats Elevation 10 ft / 3 m (AMSL)
Location 17.935665° -76.787560°
Runways 1
Magnetic Variation 7.542° W

METAR

MKJP 181200Z 35005KT 9999 FEW024 25/22 Q1016

Decode

TAF

TAF MKJP 181115Z 1812/1912 32005KT 9999 FEW024 BECMG 1814/1816 14010KT FEW022 BECMG 1903/1905 35005KT

Decode

Destination Runways

ID Width Length Bearing (true) Bearing (mag) Surface Threshold Offset Overrun Length
12 150 ft / 46 m 8,912 ft / 2,717 m 112.09° 119.63° Asphalt 0 ft / 0 m 0 ft / 0 m
30 150 ft / 46 m 8,912 ft / 2,717 m 292.10° 299.64° Asphalt 0 ft / 0 m 0 ft / 0 m

Approach Navaids

Runway Type Ident Frequency Range Bearing (true) Bearing (mag) Slope Elevation
12 Localiser IMLY 109.10 MHz 18 nm / 33 km 115.09° 122.64° - 10 ft / 3 m (AMSL)
12 Glidescope IMLY 109.10 MHz 10 nm / 19 km 115.09° 122.64° 3.00° 8 ft / 2 m (AMSL)

Popular Alternatives